Time;durP1;ratioP1;P1;durP2;ratioP2;P2;SDS_P1;SDS_P2;PMS_P1;PMS_P2;Temp;Humidity;BMP_temperature;BMP_pressure;BME280_temperature;BME280_humidity;BME280_pressure;Samples;Min_cycle;Max_cycle;Signal;HPM_P1;HPM_P2
2021/12/05 00:17:07;;;;;;;24.48;7.78;;;;;;;;;;5038264;28;20815;-80
2021/12/05 00:22:51;;;;;;;20.45;7.03;;;;;;;;;;5076298;28;20057;-80
2021/12/05 00:25:22;;;;;;;17.90;6.40;;;;;;;;;;5076427;28;20049;-81
2021/12/05 00:28:01;;;;;;;20.20;6.50;;;;;;;;;;5078706;28;20045;-81
2021/12/05 00:33:36;;;;;;;21.58;5.97;;;;;;;;;;5077439;28;20037;-80
2021/12/05 00:49:41;;;;;;;13.85;4.28;;;;;;;;;;5068451;28;20115;-80
2021/12/05 01:02:19;;;;;;;18.35;4.90;;;;;;;;;;5074141;28;20060;-80
2021/12/05 01:15:43;;;;;;;19.30;4.57;;;;;;;;;;5071502;28;20771;-79
2021/12/05 01:18:15;;;;;;;17.20;4.72;;;;;;;;;;5075268;28;20053;-80
2021/12/05 01:20:44;;;;;;;22.25;4.53;;;;;;;;;;5075929;28;20114;-80
2021/12/05 01:23:24;;;;;;;16.10;4.78;;;;;;;;;;5075466;28;20986;-81
2021/12/05 01:26:06;;;;;;;17.80;3.90;;;;;;;;;;5076322;28;20091;-80
2021/12/05 02:07:34;;;;;;;16.35;3.75;;;;;;;;;;5075110;28;20061;-80
2021/12/05 02:08:56;;;;;;;15.68;3.83;;;;;;;;;;5074704;28;20050;-81
2021/12/05 02:12:17;;;;;;;16.42;3.33;;;;;;;;;;5075528;28;20053;-81
2021/12/05 02:41:21;;;;;;;17.42;3.67;;;;;;;;;;5077699;28;20045;-80
2021/12/05 02:43:55;;;;;;;14.95;3.17;;;;;;;;;;5078048;28;20044;-79
2021/12/05 02:46:23;;;;;;;12.70;3.40;;;;;;;;;;5080130;28;20060;-80
2021/12/05 02:48:50;;;;;;;16.08;3.30;;;;;;;;;;5079859;28;20040;-80
2021/12/05 02:51:21;;;;;;;14.90;3.40;;;;;;;;;;5077249;28;20068;-80
2021/12/05 02:53:52;;;;;;;18.13;3.13;;;;;;;;;;5077776;28;20894;-80
2021/12/05 02:56:19;;;;;;;14.95;4.57;;;;;;;;;;5077923;28;20053;-82
2021/12/05 02:58:52;;;;;;;11.90;2.95;;;;;;;;;;5078120;28;20103;-81
2021/12/05 03:01:26;;;;;;;20.85;4.18;;;;;;;;;;5077987;28;20391;-81
2021/12/05 03:03:54;;;;;;;13.50;3.10;;;;;;;;;;5063329;28;20103;-79
2021/12/05 03:06:24;;;;;;;12.90;3.40;;;;;;;;;;5078036;28;20972;-81
2021/12/05 03:08:52;;;;;;;13.57;2.80;;;;;;;;;;5077805;28;20049;-80
2021/12/05 03:11:20;;;;;;;21.52;3.47;;;;;;;;;;5076850;28;20045;-80
2021/12/05 03:13:46;;;;;;;16.35;3.40;;;;;;;;;;5078160;28;20969;-80
2021/12/05 03:16:14;;;;;;;9.77;2.80;;;;;;;;;;5075175;28;20053;-80
2021/12/05 03:18:41;;;;;;;13.43;3.17;;;;;;;;;;5077821;28;20889;-80
2021/12/05 03:21:08;;;;;;;15.50;2.92;;;;;;;;;;5079012;28;20056;-80
2021/12/05 03:23:39;;;;;;;15.45;3.30;;;;;;;;;;5067346;28;20057;-80
2021/12/05 03:26:05;;;;;;;;;;;;;;;;;;5076121;28;20049;-79
2021/12/05 03:28:31;;;;;;;12.20;2.85;;;;;;;;;;5077912;28;48120;-80
2021/12/05 03:30:58;;;;;;;12.50;2.53;;;;;;;;;;5080113;28;20135;-80
2021/12/05 03:33:24;;;;;;;16.55;3.28;;;;;;;;;;5077687;28;20111;-81
2021/12/05 03:35:50;;;;;;;16.08;2.97;;;;;;;;;;5077923;28;20064;-80
2021/12/05 03:38:17;;;;;;;17.65;2.78;;;;;;;;;;5079580;28;20064;-80
2021/12/05 03:40:44;;;;;;;13.48;3.20;;;;;;;;;;5097979;28;20052;-80
2021/12/05 03:43:12;;;;;;;11.95;3.08;;;;;;;;;;5083453;28;20064;-79
2021/12/05 03:45:43;;;;;;;15.70;3.03;;;;;;;;;;5077503;28;20087;-81
2021/12/05 03:48:10;;;;;;;11.90;3.17;;;;;;;;;;5070012;28;20088;-80
2021/12/05 03:50:37;;;;;;;14.73;4.05;;;;;;;;;;5057115;28;20049;-80
2021/12/05 03:53:05;;;;;;;10.90;2.78;;;;;;;;;;5067526;28;20061;-81
2021/12/05 03:55:32;;;;;;;13.48;3.38;;;;;;;;;;5079358;28;20037;-81
2021/12/05 03:57:58;;;;;;;16.05;3.20;;;;;;;;;;5079424;28;20049;-81
2021/12/05 04:00:26;;;;;;;14.02;3.42;;;;;;;;;;5079153;28;20072;-80
2021/12/05 04:02:54;;;;;;;15.77;3.05;;;;;;;;;;5079272;28;20613;-80
2021/12/05 04:05:21;;;;;;;17.08;3.50;;;;;;;;;;5076488;28;20056;-79
2021/12/05 04:07:48;;;;;;;17.13;3.65;;;;;;;;;;5079140;28;20083;-81
2021/12/05 04:10:15;;;;;;;11.32;3.00;;;;;;;;;;5078070;28;20041;-80
2021/12/05 04:12:43;;;;;;;16.35;3.42;;;;;;;;;;5083880;28;20052;-80
2021/12/05 04:15:10;;;;;;;17.25;3.55;;;;;;;;;;5099851;28;20067;-80
2021/12/05 04:17:38;;;;;;;20.70;4.30;;;;;;;;;;5084002;28;20072;-82
2021/12/05 04:20:05;;;;;;;13.20;3.60;;;;;;;;;;5079936;28;20049;-79
2021/12/05 04:22:31;;;;;;;15.18;3.72;;;;;;;;;;5077382;28;20790;-80
2021/12/05 04:24:58;;;;;;;17.67;3.53;;;;;;;;;;5078540;28;20044;-80
2021/12/05 04:27:25;;;;;;;21.58;4.07;;;;;;;;;;5079119;28;20056;-81
2021/12/05 04:29:51;;;;;;;13.88;3.92;;;;;;;;;;5076046;28;20052;-81
2021/12/05 04:32:17;;;;;;;12.63;3.58;;;;;;;;;;5064002;28;20069;-81
2021/12/05 04:34:44;;;;;;;11.70;3.63;;;;;;;;;;5079386;28;20053;-80
2021/12/05 04:37:10;;;;;;;17.40;3.88;;;;;;;;;;5077880;28;20962;-80
2021/12/05 04:39:38;;;;;;;12.75;3.65;;;;;;;;;;5079691;28;20049;-80
2021/12/05 04:42:04;;;;;;;18.50;4.00;;;;;;;;;;5078846;28;20100;-80
2021/12/05 04:44:32;;;;;;;13.98;3.63;;;;;;;;;;5058857;28;20116;-81
2021/12/05 04:47:00;;;;;;;17.08;3.58;;;;;;;;;;5078795;28;20053;-80
2021/12/05 04:49:27;;;;;;;11.13;3.13;;;;;;;;;;5078629;28;20068;-80
2021/12/05 04:51:55;;;;;;;12.98;3.60;;;;;;;;;;5077503;28;20126;-79
2021/12/05 04:54:22;;;;;;;10.23;3.72;;;;;;;;;;5070283;28;20081;-80
2021/12/05 04:56:48;;;;;;;14.20;3.88;;;;;;;;;;5070177;28;20045;-80
2021/12/05 04:59:17;;;;;;;14.38;3.92;;;;;;;;;;5076896;28;20053;-80
2021/12/05 05:01:44;;;;;;;19.10;3.50;;;;;;;;;;5076000;28;20045;-80
2021/12/05 05:04:22;;;;;;;19.17;4.47;;;;;;;;;;5076795;28;20045;-79
2021/12/05 05:06:49;;;;;;;17.50;3.90;;;;;;;;;;5076798;28;20103;-80
2021/12/05 05:09:15;;;;;;;12.25;3.90;;;;;;;;;;5071665;28;20208;-81
2021/12/05 05:11:42;;;;;;;18.77;4.50;;;;;;;;;;5077604;28;20139;-80
2021/12/05 05:14:09;;;;;;;17.88;4.40;;;;;;;;;;5070005;28;20111;-80
2021/12/05 05:16:35;;;;;;;18.95;4.10;;;;;;;;;;5075762;28;20049;-81
2021/12/05 05:19:03;;;;;;;13.88;4.28;;;;;;;;;;5077285;28;20112;-81
2021/12/05 05:43:14;;;;;;;14.85;5.03;;;;;;;;;;5077438;28;20045;-79
2021/12/05 05:50:53;;;;;;;14.20;4.97;;;;;;;;;;5068445;28;20057;-81
2021/12/05 05:53:19;;;;;;;12.80;4.43;;;;;;;;;;5074897;28;20536;-79
2021/12/05 05:55:47;;;;;;;19.92;5.00;;;;;;;;;;5071831;28;20064;-80
2021/12/05 05:58:16;;;;;;;14.20;4.95;;;;;;;;;;5079043;28;20500;-81
2021/12/05 06:01:04;;;;;;;19.60;5.82;;;;;;;;;;5079191;28;20057;-80
2021/12/05 06:03:31;;;;;;;12.35;4.57;;;;;;;;;;5071722;28;20056;-80
2021/12/05 06:06:00;;;;;;;19.13;5.15;;;;;;;;;;5073191;28;20057;-78
2021/12/05 06:08:27;;;;;;;15.65;4.90;;;;;;;;;;5072926;28;20057;-82
2021/12/05 06:10:57;;;;;;;14.02;5.25;;;;;;;;;;5080411;28;20041;-80
2021/12/05 06:13:24;;;;;;;12.75;5.05;;;;;;;;;;5079171;28;20049;-80
2021/12/05 06:15:50;;;;;;;18.55;5.55;;;;;;;;;;5079888;28;20080;-81
2021/12/05 06:18:17;;;;;;;12.15;5.03;;;;;;;;;;5080736;28;20037;-81
2021/12/05 06:20:44;;;;;;;16.05;5.50;;;;;;;;;;5080126;28;20053;-81
2021/12/05 06:23:12;;;;;;;16.77;5.82;;;;;;;;;;5079552;28;20114;-81
2021/12/05 06:25:39;;;;;;;16.13;5.63;;;;;;;;;;5096987;28;20045;-79
2021/12/05 06:28:11;;;;;;;13.05;5.50;;;;;;;;;;5075281;28;20045;-81
2021/12/05 06:30:48;;;;;;;18.77;5.65;;;;;;;;;;5081029;28;20531;-82
2021/12/05 06:46:24;;;;;;;14.82;5.60;;;;;;;;;;5077376;28;20052;-80
2021/12/05 06:48:51;;;;;;;15.75;6.22;;;;;;;;;;5074445;28;20061;-79
2021/12/05 06:51:19;;;;;;;17.05;6.57;;;;;;;;;;5076599;28;20512;-79
2021/12/05 06:53:45;;;;;;;17.45;6.60;;;;;;;;;;5075953;28;20496;-79
2021/12/05 06:56:12;;;;;;;15.75;6.00;;;;;;;;;;5076449;28;20154;-80
2021/12/05 06:58:39;;;;;;;15.00;6.50;;;;;;;;;;5075361;28;20854;-81
2021/12/05 07:01:07;;;;;;;16.83;6.55;;;;;;;;;;5076241;28;20084;-80
2021/12/05 07:03:34;;;;;;;17.00;6.45;;;;;;;;;;5079316;28;20053;-79
2021/12/05 07:06:05;;;;;;;16.42;5.97;;;;;;;;;;5066947;28;20057;-79
2021/12/05 07:08:35;;;;;;;;;;;;;;;;;;5075020;28;20111;-80
2021/12/05 07:11:10;;;;;;;13.13;5.90;;;;;;;;;;5064912;28;48368;-81
2021/12/05 07:14:17;;;;;;;12.38;5.93;;;;;;;;;;5076447;28;20055;-81
2021/12/05 07:16:50;;;;;;;19.30;6.28;;;;;;;;;;5075602;28;20045;-81
2021/12/05 07:40:29;;;;;;;13.18;6.32;;;;;;;;;;5069576;28;20030;-81
2021/12/05 07:42:57;;;;;;;13.68;5.70;;;;;;;;;;5082009;28;20041;-82
2021/12/05 07:45:31;;;;;;;14.25;6.30;;;;;;;;;;5081132;28;20053;-83
2021/12/05 07:48:03;;;;;;;15.57;6.00;;;;;;;;;;5076810;28;20048;-82
2021/12/05 07:50:41;;;;;;;14.77;6.55;;;;;;;;;;5076153;28;20069;-81
2021/12/05 07:53:15;;;;;;;13.48;6.57;;;;;;;;;;5079673;28;20053;-81
2021/12/05 07:55:44;;;;;;;14.15;6.32;;;;;;;;;;5086303;28;20052;-81
2021/12/05 07:58:32;;;;;;;13.82;6.40;;;;;;;;;;5073607;28;20076;-80
2021/12/05 08:01:18;;;;;;;12.25;6.15;;;;;;;;;;5081373;28;20057;-81
2021/12/05 08:15:13;;;;;;;13.57;5.82;;;;;;;;;;5050690;28;20065;-80
2021/12/05 08:17:39;;;;;;;13.40;6.43;;;;;;;;;;5044169;28;20922;-81
2021/12/05 08:20:09;;;;;;;14.30;6.18;;;;;;;;;;5071270;28;20041;-80
2021/12/05 08:22:35;;;;;;;14.43;6.10;;;;;;;;;;5080356;28;20067;-81
2021/12/05 08:25:09;;;;;;;13.63;5.82;;;;;;;;;;5081464;28;20053;-82
2021/12/05 08:27:38;;;;;;;16.48;7.35;;;;;;;;;;5086304;28;20044;-81
2021/12/05 08:30:10;;;;;;;14.55;5.65;;;;;;;;;;5088982;28;20084;-82
2021/12/05 08:33:09;;;;;;;14.73;6.35;;;;;;;;;;5079298;28;20057;-82
2021/12/05 08:36:01;;;;;;;17.55;8.90;;;;;;;;;;5076340;28;20088;-80
2021/12/05 09:08:26;;;;;;;14.13;6.40;;;;;;;;;;5075997;28;20052;-81
2021/12/05 09:20:23;;;;;;;13.10;6.25;;;;;;;;;;5078194;28;20039;-80
2021/12/05 09:28:04;;;;;;;22.20;8.75;;;;;;;;;;5079108;28;20045;-82
2021/12/05 10:09:20;;;;;;;15.57;6.88;;;;;;;;;;5087784;28;20060;-82
2021/12/05 10:11:58;;;;;;;14.00;7.20;;;;;;;;;;5101796;28;20049;-82
2021/12/05 10:17:36;;;;;;;17.88;7.30;;;;;;;;;;5083118;28;20531;-82
2021/12/05 10:34:18;;;;;;;19.90;8.68;;;;;;;;;;5081824;28;20052;-81
2021/12/05 10:36:44;;;;;;;17.80;8.10;;;;;;;;;;5082485;28;20049;-82
2021/12/05 10:39:19;;;;;;;16.17;8.10;;;;;;;;;;5080567;28;20045;-81
2021/12/05 10:41:58;;;;;;;15.65;7.93;;;;;;;;;;5084637;28;20041;-81
2021/12/05 10:44:24;;;;;;;21.65;10.43;;;;;;;;;;5081017;28;20075;-82
2021/12/05 10:46:55;;;;;;;25.80;12.68;;;;;;;;;;5079966;28;20069;-81
2021/12/05 10:49:22;;;;;;;20.88;10.38;;;;;;;;;;5082156;28;20049;-82
2021/12/05 10:51:50;;;;;;;19.33;9.38;;;;;;;;;;5083238;28;20072;-80
2021/12/05 10:54:22;;;;;;;19.35;8.82;;;;;;;;;;5076548;28;20159;-81
2021/12/05 10:56:51;;;;;;;19.75;8.88;;;;;;;;;;5081718;28;20115;-80
2021/12/05 10:59:17;;;;;;;18.58;8.90;;;;;;;;;;5083396;28;20037;-81
2021/12/05 11:01:48;;;;;;;21.05;9.10;;;;;;;;;;5081768;28;20049;-81
2021/12/05 11:04:17;;;;;;;22.20;9.40;;;;;;;;;;5077897;28;20957;-81
2021/12/05 11:07:01;;;;;;;19.17;8.55;;;;;;;;;;5091949;28;20131;-82
2021/12/05 11:09:31;;;;;;;19.02;9.65;;;;;;;;;;5076882;28;20720;-81
2021/12/05 11:12:03;;;;;;;18.88;8.57;;;;;;;;;;5098738;28;20049;-81
2021/12/05 11:14:32;;;;;;;19.50;8.90;;;;;;;;;;5081794;28;20118;-81
2021/12/05 11:16:59;;;;;;;19.35;10.35;;;;;;;;;;5081965;28;20045;-82
2021/12/05 11:19:28;;;;;;;16.83;8.88;;;;;;;;;;5088116;28;20045;-82
2021/12/05 11:22:05;;;;;;;18.65;8.93;;;;;;;;;;5081997;28;20057;-81
2021/12/05 11:24:34;;;;;;;19.42;9.90;;;;;;;;;;5089058;28;20140;-80
2021/12/05 11:27:04;;;;;;;19.58;9.30;;;;;;;;;;5086441;28;20068;-82
2021/12/05 11:29:39;;;;;;;17.77;8.38;;;;;;;;;;5090120;28;20735;-81
2021/12/05 11:32:06;;;;;;;19.25;8.98;;;;;;;;;;5080696;28;20057;-80
2021/12/05 11:34:33;;;;;;;20.05;9.35;;;;;;;;;;5087027;28;20825;-82
2021/12/05 11:36:59;;;;;;;17.85;8.20;;;;;;;;;;5093902;28;20417;-81
2021/12/05 11:39:26;;;;;;;17.27;8.57;;;;;;;;;;5082923;28;20041;-81
2021/12/05 11:41:52;;;;;;;20.33;9.35;;;;;;;;;;5082759;28;20183;-80
2021/12/05 11:44:20;;;;;;;18.15;9.00;;;;;;;;;;5081337;28;20107;-82
2021/12/05 11:46:46;;;;;;;20.70;10.25;;;;;;;;;;5082862;28;20049;-81
2021/12/05 11:49:24;;;;;;;16.88;8.70;;;;;;;;;;5075373;28;20061;-81
2021/12/05 11:51:52;;;;;;;18.38;8.82;;;;;;;;;;5082552;28;20033;-81
2021/12/05 11:54:27;;;;;;;18.10;8.55;;;;;;;;;;5081533;28;20049;-81
2021/12/05 11:57:19;;;;;;;15.65;8.05;;;;;;;;;;5081846;28;20113;-80
2021/12/05 11:59:47;;;;;;;19.50;8.93;;;;;;;;;;5080809;28;20039;-82
2021/12/05 12:02:14;;;;;;;23.23;10.65;;;;;;;;;;5081094;28;20079;-82
2021/12/05 12:04:57;;;;;;;28.58;13.02;;;;;;;;;;5073837;28;20056;-81
2021/12/05 12:07:24;;;;;;;20.27;10.80;;;;;;;;;;5079477;28;20045;-81
2021/12/05 12:09:53;;;;;;;21.65;11.35;;;;;;;;;;5079680;28;20060;-82
2021/12/05 12:12:20;;;;;;;18.42;9.00;;;;;;;;;;5077396;28;20063;-82
2021/12/05 12:14:46;;;;;;;20.10;10.15;;;;;;;;;;5082322;28;20213;-80
2021/12/05 12:17:16;;;;;;;17.95;8.38;;;;;;;;;;5081625;28;20084;-82
2021/12/05 12:19:44;;;;;;;18.27;8.25;;;;;;;;;;5079941;28;20059;-81
2021/12/05 12:22:11;;;;;;;15.80;8.45;;;;;;;;;;5079158;28;20053;-81
2021/12/05 12:24:39;;;;;;;17.10;8.15;;;;;;;;;;5077814;28;20063;-82
2021/12/05 12:27:07;;;;;;;15.82;8.20;;;;;;;;;;5080863;28;20873;-83
2021/12/05 12:29:34;;;;;;;15.77;7.60;;;;;;;;;;5078272;28;20535;-81
2021/12/05 12:32:10;;;;;;;16.23;7.88;;;;;;;;;;5079919;28;20118;-83
2021/12/05 12:34:37;;;;;;;25.92;13.10;;;;;;;;;;5079563;28;20075;-82
2021/12/05 12:37:05;;;;;;;23.48;14.63;;;;;;;;;;5078488;28;20068;-81
2021/12/05 12:39:34;;;;;;;28.33;16.30;;;;;;;;;;5095135;28;20045;-80
2021/12/05 12:42:23;;;;;;;19.77;11.32;;;;;;;;;;5090184;28;20079;-83
2021/12/05 12:44:57;;;;;;;18.73;9.75;;;;;;;;;;5079723;28;20037;-80
2021/12/05 12:47:33;;;;;;;22.52;14.20;;;;;;;;;;5079067;28;20041;-81
2021/12/05 12:50:19;;;;;;;21.23;12.00;;;;;;;;;;5086782;28;20049;-82
2021/12/05 12:53:00;;;;;;;19.10;13.50;;;;;;;;;;5079913;28;20048;-82
2021/12/05 12:55:27;;;;;;;;;;;;;;;;;;5079410;28;20045;-82
2021/12/05 12:57:53;;;;;;;22.10;13.70;;;;;;;;;;5074430;28;48148;-83
2021/12/05 13:00:22;;;;;;;19.30;12.35;;;;;;;;;;5075272;28;20479;-82
2021/12/05 13:05:40;;;;;;;14.82;7.90;;;;;;;;;;5079728;28;20045;-82
2021/12/05 13:11:05;;;;;;;15.07;7.13;;;;;;;;;;5080823;28;20130;-82
2021/12/05 13:13:33;;;;;;;15.45;7.20;;;;;;;;;;5079260;28;20061;-82
2021/12/05 13:16:15;;;;;;;14.10;7.18;;;;;;;;;;5075937;28;20049;-83
2021/12/05 13:18:42;;;;;;;12.25;6.80;;;;;;;;;;5071770;28;20137;-81
2021/12/05 13:21:15;;;;;;;15.43;7.80;;;;;;;;;;5066886;28;20057;-83
2021/12/05 13:23:43;;;;;;;15.25;7.05;;;;;;;;;;5080038;28;20053;-82
2021/12/05 13:26:25;;;;;;;14.45;7.97;;;;;;;;;;5079746;28;20804;-82
2021/12/05 13:29:12;;;;;;;14.20;7.75;;;;;;;;;;5079931;28;20049;-80
2021/12/05 13:31:41;;;;;;;16.92;7.50;;;;;;;;;;5079468;28;20071;-80
2021/12/05 13:34:28;;;;;;;13.43;7.10;;;;;;;;;;5088186;28;20100;-81
2021/12/05 13:37:00;;;;;;;13.75;7.50;;;;;;;;;;5080731;28;20991;-81
2021/12/05 13:39:35;;;;;;;15.20;7.93;;;;;;;;;;5081041;28;20033;-82
2021/12/05 13:42:04;;;;;;;13.95;7.65;;;;;;;;;;5080150;28;20052;-82
2021/12/05 13:44:49;;;;;;;14.80;7.40;;;;;;;;;;5080755;28;20049;-83
2021/12/05 13:47:16;;;;;;;17.08;10.75;;;;;;;;;;5080124;28;20112;-80
2021/12/05 13:49:42;;;;;;;13.35;7.07;;;;;;;;;;5080532;28;20130;-82
2021/12/05 13:52:32;;;;;;;26.95;16.45;;;;;;;;;;5090840;28;20966;-81
2021/12/05 13:55:17;;;;;;;13.77;7.15;;;;;;;;;;5081428;28;20053;-82
2021/12/05 13:58:02;;;;;;;11.50;6.80;;;;;;;;;;5080935;28;20053;-82
2021/12/05 14:00:39;;;;;;;13.50;7.15;;;;;;;;;;5079679;28;20796;-81
2021/12/05 14:03:05;;;;;;;12.48;6.55;;;;;;;;;;5081124;28;20049;-80
2021/12/05 14:05:33;;;;;;;14.60;6.45;;;;;;;;;;5079470;28;20049;-82
2021/12/05 14:08:00;;;;;;;14.02;7.07;;;;;;;;;;5080439;28;20049;-82
2021/12/05 14:10:26;;;;;;;16.20;6.40;;;;;;;;;;5079586;28;20061;-82
2021/12/05 14:12:52;;;;;;;14.50;7.90;;;;;;;;;;5080361;28;20045;-81
2021/12/05 14:15:19;;;;;;;16.38;8.30;;;;;;;;;;5080822;28;20056;-82
2021/12/05 14:17:48;;;;;;;15.55;8.27;;;;;;;;;;5080184;28;20115;-80
2021/12/05 14:20:20;;;;;;;15.57;7.78;;;;;;;;;;5083671;28;20053;-80
2021/12/05 14:22:48;;;;;;;12.50;6.97;;;;;;;;;;5077812;28;20057;-81
2021/12/05 14:25:16;;;;;;;13.75;7.05;;;;;;;;;;5083792;28;20091;-81
2021/12/05 14:27:45;;;;;;;13.95;7.78;;;;;;;;;;5083987;28;20144;-82
2021/12/05 14:30:12;;;;;;;16.13;8.07;;;;;;;;;;5084269;28;20045;-82
2021/12/05 14:32:40;;;;;;;14.30;8.25;;;;;;;;;;5083417;28;20053;-82
2021/12/05 14:35:22;;;;;;;14.25;8.10;;;;;;;;;;5083296;28;20045;-81
2021/12/05 14:37:50;;;;;;;13.30;7.32;;;;;;;;;;5083811;28;20053;-82
2021/12/05 14:40:19;;;;;;;14.52;7.85;;;;;;;;;;5084554;28;20057;-81
2021/12/05 14:42:47;;;;;;;13.57;7.28;;;;;;;;;;5099178;28;20028;-82
2021/12/05 14:45:21;;;;;;;14.25;7.57;;;;;;;;;;5092619;28;20049;-82
2021/12/05 14:47:48;;;;;;;13.45;7.57;;;;;;;;;;5084213;28;20056;-82
2021/12/05 14:50:26;;;;;;;13.13;6.72;;;;;;;;;;5083589;28;20041;-82
2021/12/05 14:52:54;;;;;;;15.70;7.90;;;;;;;;;;5084096;28;20049;-82
2021/12/05 14:55:22;;;;;;;13.77;7.38;;;;;;;;;;5083708;28;20049;-82
2021/12/05 14:57:51;;;;;;;15.93;7.72;;;;;;;;;;5083006;28;20053;-82
2021/12/05 15:00:18;;;;;;;14.50;7.38;;;;;;;;;;5084045;28;20606;-82
2021/12/05 15:02:45;;;;;;;13.15;7.22;;;;;;;;;;5083765;28;20135;-81
2021/12/05 15:05:13;;;;;;;14.65;7.95;;;;;;;;;;5083112;28;20068;-81
2021/12/05 15:07:40;;;;;;;16.05;8.30;;;;;;;;;;5084722;28;20065;-81
2021/12/05 15:10:07;;;;;;;16.05;8.50;;;;;;;;;;5081700;28;20053;-82
2021/12/05 15:12:34;;;;;;;15.60;8.40;;;;;;;;;;5062968;28;20046;-82
2021/12/05 15:15:03;;;;;;;17.08;8.90;;;;;;;;;;5068393;28;20837;-82
2021/12/05 15:17:31;;;;;;;17.63;8.38;;;;;;;;;;5080437;28;20652;-82
2021/12/05 15:19:59;;;;;;;23.92;11.07;;;;;;;;;;5082541;28;20060;-82
2021/12/05 15:22:38;;;;;;;18.38;9.10;;;;;;;;;;5082898;28;20053;-83
2021/12/05 15:25:06;;;;;;;17.17;9.18;;;;;;;;;;5083660;28;20099;-83
2021/12/05 15:27:34;;;;;;;16.05;8.38;;;;;;;;;;5095755;27;20052;-83
2021/12/05 15:30:03;;;;;;;14.80;7.55;;;;;;;;;;5092276;28;20037;-82
2021/12/05 15:32:31;;;;;;;15.87;8.63;;;;;;;;;;5079801;27;20044;-83
2021/12/05 15:35:02;;;;;;;15.70;8.18;;;;;;;;;;5093961;27;20068;-83
2021/12/05 15:37:29;;;;;;;13.95;7.35;;;;;;;;;;5094867;27;20045;-83
2021/12/05 15:39:56;;;;;;;18.40;9.32;;;;;;;;;;5094332;27;20045;-83
2021/12/05 15:42:24;;;;;;;23.23;9.80;;;;;;;;;;5094231;27;20067;-83
2021/12/05 15:44:52;;;;;;;25.73;10.57;;;;;;;;;;5094267;27;20053;-83
2021/12/05 15:47:24;;;;;;;21.52;9.90;;;;;;;;;;5093363;27;20037;-83
2021/12/05 15:50:05;;;;;;;28.83;14.40;;;;;;;;;;5094068;27;20069;-83
2021/12/05 15:52:31;;;;;;;30.25;15.10;;;;;;;;;;5073600;28;20045;-82
2021/12/05 15:54:58;;;;;;;29.85;14.60;;;;;;;;;;5080405;28;20060;-82
2021/12/05 15:57:31;;;;;;;27.92;15.00;;;;;;;;;;5095141;27;20102;-82
2021/12/05 15:59:59;;;;;;;20.98;11.00;;;;;;;;;;5094347;27;20060;-82
2021/12/05 16:02:25;;;;;;;26.15;10.98;;;;;;;;;;5093323;27;20045;-82
2021/12/05 16:04:52;;;;;;;20.40;10.05;;;;;;;;;;5094130;27;20045;-83
2021/12/05 16:07:19;;;;;;;19.52;10.05;;;;;;;;;;5092729;27;20049;-82
2021/12/05 16:09:45;;;;;;;20.95;10.73;;;;;;;;;;5084347;28;20045;-81
2021/12/05 16:12:14;;;;;;;20.00;10.95;;;;;;;;;;5066070;28;20511;-81
2021/12/05 16:14:42;;;;;;;19.90;10.45;;;;;;;;;;5065488;28;20029;-82
2021/12/05 16:17:16;;;;;;;17.60;9.05;;;;;;;;;;5075535;28;20045;-82
2021/12/05 16:20:01;;;;;;;17.30;8.90;;;;;;;;;;5085290;28;20061;-82
2021/12/05 16:22:28;;;;;;;17.48;8.65;;;;;;;;;;5084962;28;20052;-81
2021/12/05 16:24:54;;;;;;;17.83;9.02;;;;;;;;;;5083946;28;20091;-81
2021/12/05 16:27:21;;;;;;;18.08;9.18;;;;;;;;;;5084538;28;20818;-81
2021/12/05 16:29:47;;;;;;;18.15;9.50;;;;;;;;;;5084006;28;20064;-82
2021/12/05 16:32:14;;;;;;;18.08;9.60;;;;;;;;;;5084507;28;20041;-82
2021/12/05 16:34:46;;;;;;;22.95;11.27;;;;;;;;;;5084037;28;20061;-81
2021/12/05 16:37:14;;;;;;;22.88;12.07;;;;;;;;;;5085317;28;20115;-82
2021/12/05 16:39:45;;;;;;;25.95;13.02;;;;;;;;;;5085291;28;20041;-82
2021/12/05 16:42:13;;;;;;;29.70;14.60;;;;;;;;;;5083644;28;20071;-83
2021/12/05 16:44:42;;;;;;;;;;;;;;;;;;5086630;28;20044;-82
2021/12/05 16:47:11;;;;;;;27.50;12.57;;;;;;;;;;5083887;28;46486;-81
2021/12/05 16:49:40;;;;;;;25.20;12.90;;;;;;;;;;5086069;28;20112;-82
2021/12/05 16:52:14;;;;;;;25.40;13.30;;;;;;;;;;5080428;28;20088;-82
2021/12/05 16:54:48;;;;;;;28.38;12.90;;;;;;;;;;5071067;28;20049;-83
2021/12/05 16:57:21;;;;;;;23.83;12.77;;;;;;;;;;5084260;28;20045;-82
2021/12/05 16:59:52;;;;;;;24.25;12.57;;;;;;;;;;5084234;28;20041;-83
2021/12/05 17:02:18;;;;;;;;;;;;;;;;;;5082095;28;20041;-82
2021/12/05 17:04:50;;;;;;;26.38;12.02;;;;;;;;;;5065510;28;42297;-82
2021/12/05 17:07:36;;;;;;;22.15;11.50;;;;;;;;;;5083970;28;20056;-81
2021/12/05 17:10:04;;;;;;;21.27;11.45;;;;;;;;;;5084225;28;20212;-82
2021/12/05 17:12:32;;;;;;;20.70;11.15;;;;;;;;;;5079804;28;20051;-82
2021/12/05 17:15:13;;;;;;;21.05;10.93;;;;;;;;;;5088969;28;20056;-82
2021/12/05 17:17:40;;;;;;;20.45;11.05;;;;;;;;;;5081950;28;20049;-83
2021/12/05 17:20:21;;;;;;;20.05;9.98;;;;;;;;;;5083887;28;20119;-82
2021/12/05 17:22:51;;;;;;;21.00;10.23;;;;;;;;;;5084874;28;20041;-83
2021/12/05 17:25:28;;;;;;;17.73;9.85;;;;;;;;;;5083670;28;20045;-82
2021/12/05 17:27:54;;;;;;;20.10;10.10;;;;;;;;;;5083705;28;20067;-82
2021/12/05 17:30:20;;;;;;;22.05;10.10;;;;;;;;;;5084361;28;20021;-83
2021/12/05 17:32:47;;;;;;;20.15;10.25;;;;;;;;;;5098496;28;20083;-82
2021/12/05 17:35:13;;;;;;;20.60;10.50;;;;;;;;;;5104077;28;20799;-81
2021/12/05 17:37:43;;;;;;;29.58;10.77;;;;;;;;;;5104113;28;20060;-82
2021/12/05 17:40:29;;;;;;;21.90;11.40;;;;;;;;;;5084774;28;20052;-83
2021/12/05 17:42:56;;;;;;;23.73;11.52;;;;;;;;;;5066316;28;20894;-81
2021/12/05 17:45:22;;;;;;;22.55;11.10;;;;;;;;;;5064496;28;20609;-82
2021/12/05 17:47:48;;;;;;;21.70;10.57;;;;;;;;;;5083710;28;20056;-82
2021/12/05 17:50:20;;;;;;;21.45;10.68;;;;;;;;;;5083526;28;20057;-83
2021/12/05 17:52:48;;;;;;;23.55;10.52;;;;;;;;;;5081662;28;20061;-81
2021/12/05 17:55:29;;;;;;;17.65;9.60;;;;;;;;;;5083868;28;20046;-82
2021/12/05 17:58:02;;;;;;;20.88;10.13;;;;;;;;;;5087419;28;20041;-81
2021/12/05 18:02:58;;;;;;;23.55;11.23;;;;;;;;;;5088980;28;20065;-82
2021/12/05 18:05:26;;;;;;;20.70;10.50;;;;;;;;;;5090009;28;20048;-82
2021/12/05 18:07:56;;;;;;;21.95;10.60;;;;;;;;;;5107839;28;20052;-82
2021/12/05 18:10:25;;;;;;;19.67;10.27;;;;;;;;;;5101892;28;20057;-82
2021/12/05 18:12:56;;;;;;;23.90;11.27;;;;;;;;;;5066481;28;20046;-82
2021/12/05 18:15:50;;;;;;;20.80;10.70;;;;;;;;;;5087092;28;20120;-81
2021/12/05 18:18:17;;;;;;;23.67;11.45;;;;;;;;;;5086968;28;20068;-81
2021/12/05 18:20:44;;;;;;;19.67;10.88;;;;;;;;;;5087055;28;20131;-82
2021/12/05 18:23:10;;;;;;;21.65;11.20;;;;;;;;;;5086442;28;20124;-82
2021/12/05 18:25:37;;;;;;;23.77;11.25;;;;;;;;;;5087015;28;20056;-83
2021/12/05 18:28:05;;;;;;;21.25;11.38;;;;;;;;;;5087020;28;20079;-82
2021/12/05 18:30:33;;;;;;;22.58;10.70;;;;;;;;;;5086330;28;20064;-82
2021/12/05 18:33:01;;;;;;;24.10;11.13;;;;;;;;;;5080057;28;20049;-79
2021/12/05 18:35:31;;;;;;;22.80;11.65;;;;;;;;;;5070423;28;20061;-82
2021/12/05 18:38:05;;;;;;;25.65;11.45;;;;;;;;;;5073639;28;20097;-82
2021/12/05 18:40:32;;;;;;;23.83;11.77;;;;;;;;;;5078977;28;20045;-82
2021/12/05 18:42:59;;;;;;;25.63;11.93;;;;;;;;;;5082754;28;20061;-82
2021/12/05 18:45:29;;;;;;;22.10;11.75;;;;;;;;;;5081456;28;21255;-81
2021/12/05 18:47:56;;;;;;;22.83;10.82;;;;;;;;;;5080523;28;20087;-83
2021/12/05 18:50:22;;;;;;;26.65;12.38;;;;;;;;;;5083769;28;20060;-82
2021/12/05 18:52:49;;;;;;;23.65;12.13;;;;;;;;;;5084244;28;20889;-82
2021/12/05 18:55:21;;;;;;;29.15;13.88;;;;;;;;;;5086475;28;21331;-83
2021/12/05 18:57:48;;;;;;;27.50;13.20;;;;;;;;;;5085928;28;20045;-83
2021/12/05 19:00:27;;;;;;;26.00;13.02;;;;;;;;;;5084211;28;20057;-82
2021/12/05 19:05:49;;;;;;;28.08;13.10;;;;;;;;;;5083001;28;20049;-82
2021/12/05 19:13:51;;;;;;;28.73;13.80;;;;;;;;;;5088068;28;20109;-82
2021/12/05 19:16:18;;;;;;;28.90;13.82;;;;;;;;;;5085227;28;20049;-83
2021/12/05 19:18:44;;;;;;;29.17;13.45;;;;;;;;;;5084983;28;20148;-82
2021/12/05 19:21:10;;;;;;;28.10;13.40;;;;;;;;;;5086988;28;20067;-83
2021/12/05 19:23:38;;;;;;;26.83;13.45;;;;;;;;;;5083868;28;20382;-82
2021/12/05 19:26:06;;;;;;;29.25;13.95;;;;;;;;;;5102587;28;20037;-82
2021/12/05 19:28:33;;;;;;;31.85;15.02;;;;;;;;;;5072874;28;20068;-83
2021/12/05 19:31:01;;;;;;;27.90;14.45;;;;;;;;;;5083979;28;20049;-82
2021/12/05 19:33:30;;;;;;;27.15;13.98;;;;;;;;;;5082160;28;20053;-83
2021/12/05 19:35:58;;;;;;;35.70;15.48;;;;;;;;;;5076264;28;20046;-80
2021/12/05 19:38:25;;;;;;;33.30;16.13;;;;;;;;;;5081780;28;20103;-82
2021/12/05 19:40:54;;;;;;;31.98;16.85;;;;;;;;;;5083694;28;20045;-82
2021/12/05 19:43:24;;;;;;;34.45;15.95;;;;;;;;;;5080258;28;20056;-83
2021/12/05 19:45:54;;;;;;;29.58;14.98;;;;;;;;;;5085213;28;20060;-82
2021/12/05 19:48:21;;;;;;;31.33;14.30;;;;;;;;;;5089888;28;20037;-82
2021/12/05 19:50:48;;;;;;;29.02;14.68;;;;;;;;;;5082188;28;20130;-83
2021/12/05 19:53:15;;;;;;;37.30;15.30;;;;;;;;;;5077115;28;20055;-81
2021/12/05 19:55:42;;;;;;;30.52;14.70;;;;;;;;;;5090960;28;20205;-82
2021/12/05 19:58:09;;;;;;;30.65;14.60;;;;;;;;;;5083354;28;20045;-81